createdAt,value
2022-07-31T00:01:58.184Z,95433.88
2022-07-31T00:04:44.006Z,95439.81
2022-07-31T00:07:29.947Z,95429.16
2022-07-31T00:10:15.982Z,95424.81
2022-07-31T00:13:02.150Z,95437.06
2022-07-31T00:15:47.889Z,95431.91
2022-07-31T00:18:35.231Z,95437.44
2022-07-31T00:21:21.713Z,95437.44
2022-07-31T00:24:07.510Z,95429.56
2022-07-31T00:26:53.212Z,95433.47
2022-07-31T00:29:40.248Z,95439.38
2022-07-31T00:32:26.453Z,95431.81
2022-07-31T00:35:14.240Z,95429.88
2022-07-31T00:38:25.577Z,95441.25
2022-07-31T00:41:07.917Z,95435.75
2022-07-31T00:43:53.799Z,95431.41
2022-07-31T00:46:40.560Z,95444.41
2022-07-31T00:49:26.645Z,95436.50
2022-07-31T00:52:23.875Z,95446.31
2022-07-31T00:55:10.131Z,95453.03
2022-07-31T00:57:56.057Z,95451.84
2022-07-31T01:00:41.980Z,95443.53
2022-07-31T01:03:28.147Z,95460.84
2022-07-31T01:06:32.176Z,95454.50
2022-07-31T01:09:18.205Z,95449.75
2022-07-31T01:12:15.037Z,95440.28
2022-07-31T01:15:04.470Z,95430.81
2022-07-31T01:17:52.514Z,95435.56
2022-07-31T01:20:43.180Z,95419.75
2022-07-31T01:23:54.989Z,95426.06
2022-07-31T01:27:07.556Z,95437.91
2022-07-31T01:29:56.701Z,95426.88
2022-07-31T01:32:47.610Z,95430.03
2022-07-31T01:35:40.286Z,95422.94
2022-07-31T01:38:35.630Z,95429.22
2022-07-31T01:41:26.045Z,95430.78
2022-07-31T01:44:14.139Z,95437.78
2022-07-31T01:47:01.672Z,95429.50
2022-07-31T01:49:53.681Z,95432.56
2022-07-31T01:52:41.057Z,95429.47
2022-07-31T01:55:27.331Z,95436.94
2022-07-31T01:58:14.099Z,95419.63
2022-07-31T02:01:03.772Z,95418.88
2022-07-31T02:03:56.085Z,95424.75
2022-07-31T02:06:44.129Z,95421.25
2022-07-31T02:09:34.131Z,95414.16
2022-07-31T02:12:31.985Z,95425.16
2022-07-31T02:15:28.087Z,95427.88
2022-07-31T02:18:15.418Z,95433.03
2022-07-31T02:21:29.947Z,95428.25
2022-07-31T02:24:16.751Z,95431.78
2022-07-31T02:27:03.048Z,95432.16
2022-07-31T02:29:49.599Z,95433.75
2022-07-31T02:32:36.349Z,95435.31
2022-07-31T02:35:22.604Z,95434.91
2022-07-31T02:38:09.071Z,95438.50
2022-07-31T02:41:18.906Z,95447.16
2022-07-31T02:44:05.365Z,95436.94
2022-07-31T02:46:51.638Z,95438.16
2022-07-31T02:49:58.097Z,95437.72
2022-07-31T02:52:44.240Z,95433.03
2022-07-31T02:55:30.625Z,95438.94
2022-07-31T02:58:16.859Z,95436.56
2022-07-31T03:01:06.145Z,95442.44
2022-07-31T03:03:54.492Z,95436.91
2022-07-31T03:06:40.525Z,95436.13
2022-07-31T03:09:27.234Z,95445.63
2022-07-31T03:12:30.075Z,95442.81
2022-07-31T03:15:21.812Z,95456.19
2022-07-31T03:18:24.357Z,95448.69
2022-07-31T03:21:11.874Z,95454.25
2022-07-31T03:23:59.227Z,95460.50
2022-07-31T03:26:45.617Z,95453.44
2022-07-31T03:29:43.281Z,95448.69
2022-07-31T03:32:30.870Z,95443.16
2022-07-31T03:35:18.338Z,95438.41
2022-07-31T03:38:38.264Z,95446.34
2022-07-31T03:41:13.408Z,95444.38
2022-07-31T03:43:59.537Z,95440.84
2022-07-31T03:46:45.846Z,95451.81
2022-07-31T03:49:32.934Z,95445.47
2022-07-31T03:52:26.837Z,95447.88
2022-07-31T03:55:13.313Z,95443.97
2022-07-31T03:57:59.945Z,95451.84
2022-07-31T04:00:46.305Z,95453.44
2022-07-31T04:03:34.763Z,95447.91
2022-07-31T04:06:52.093Z,95468.03
2022-07-31T04:09:39.557Z,95446.34
2022-07-31T04:12:29.646Z,95458.63
2022-07-31T04:15:15.408Z,95459.41
2022-07-31T04:18:01.730Z,95450.72
2022-07-31T04:20:54.059Z,95461.78
2022-07-31T04:23:40.525Z,95460.66
2022-07-31T04:26:36.579Z,95463.34
2022-07-31T04:29:22.969Z,95458.59
2022-07-31T04:32:09.187Z,95467.63
2022-07-31T04:35:03.942Z,95455.78
2022-07-31T04:37:50.194Z,95466.03
2022-07-31T04:40:37.462Z,95462.06
2022-07-31T04:43:23.531Z,95478.63
2022-07-31T04:46:17.766Z,95479.03
2022-07-31T04:49:05.318Z,95477.03
2022-07-31T04:51:51.475Z,95475.50
2022-07-31T04:54:42.848Z,95482.19
2022-07-31T04:57:32.387Z,95471.53
2022-07-31T05:00:18.857Z,95489.66
2022-07-31T05:03:04.949Z,95479.03
2022-07-31T05:05:50.938Z,95478.66
2022-07-31T05:08:37.056Z,95477.91
2022-07-31T05:11:23.272Z,95483.47
2022-07-31T05:14:11.161Z,95488.97
2022-07-31T05:16:57.369Z,95481.88
2022-07-31T05:19:43.619Z,95484.63
2022-07-31T05:22:54.951Z,95485.44
2022-07-31T05:25:59.212Z,95495.28
2022-07-31T05:28:46.442Z,95498.41
2022-07-31T05:31:33.092Z,95498.41
2022-07-31T05:34:19.033Z,95491.34
2022-07-31T05:37:05.096Z,95491.34
2022-07-31T05:39:54.430Z,95492.19
2022-07-31T05:42:58.992Z,95478.38
2022-07-31T05:46:07.319Z,95497.72
2022-07-31T05:48:54.329Z,95494.56
2022-07-31T05:51:44.981Z,95483.13
2022-07-31T05:54:32.643Z,95492.59
2022-07-31T05:57:36.930Z,95496.13
2022-07-31T06:00:22.969Z,95498.50
2022-07-31T06:03:08.969Z,95505.63
2022-07-31T06:06:20.929Z,95504.09
2022-07-31T06:09:06.667Z,95509.66
2022-07-31T06:11:59.938Z,95511.22
2022-07-31T06:14:46.435Z,95514.38
2022-07-31T06:17:50.849Z,95511.63
2022-07-31T06:20:51.496Z,95503.75
2022-07-31T06:23:37.891Z,95509.69
2022-07-31T06:26:41.287Z,95508.16
2022-07-31T06:29:40.969Z,95507.38
2022-07-31T06:32:32.932Z,95506.63
2022-07-31T06:35:19.920Z,95502.28
2022-07-31T06:38:31.010Z,95508.19
2022-07-31T06:41:52.349Z,95520.84
2022-07-31T06:44:58.970Z,95514.53
2022-07-31T06:48:03.737Z,95516.94
2022-07-31T06:51:29.167Z,95509.47
2022-07-31T06:54:09.224Z,95505.97
2022-07-31T06:56:56.346Z,95510.69
2022-07-31T06:59:42.690Z,95505.16
2022-07-31T07:02:28.623Z,95513.06
2022-07-31T07:05:14.837Z,95507.56
2022-07-31T07:08:01.221Z,95511.50
2022-07-31T07:10:50.440Z,95503.66
2022-07-31T07:13:56.352Z,95492.63
2022-07-31T07:16:42.618Z,95508.41
2022-07-31T07:19:28.751Z,95503.69
2022-07-31T07:22:14.927Z,95506.03
2022-07-31T07:25:01.683Z,95505.25
2022-07-31T07:27:48.355Z,95505.25
2022-07-31T07:30:34.815Z,95501.31
2022-07-31T07:33:41.241Z,95496.19
2022-07-31T07:36:34.243Z,95497.00
2022-07-31T07:39:28.763Z,95492.66
2022-07-31T07:42:15.734Z,95492.69
2022-07-31T07:45:03.431Z,95495.47
2022-07-31T07:48:06.163Z,95499.81
2022-07-31T07:51:13.793Z,95517.19
2022-07-31T07:54:16.235Z,95513.19
2022-07-31T07:57:28.389Z,95523.44
2022-07-31T08:00:33.002Z,95514.38
2022-07-31T08:03:49.372Z,95513.56
2022-07-31T08:06:28.206Z,95506.88
2022-07-31T08:09:14.430Z,95500.56
2022-07-31T08:12:19.133Z,95503.72
2022-07-31T08:15:24.723Z,95506.94
2022-07-31T08:18:50.465Z,95509.28
2022-07-31T08:21:37.539Z,95507.31
2022-07-31T08:24:23.574Z,95509.72
2022-07-31T08:27:39.361Z,95508.53
2022-07-31T08:30:30.758Z,95513.28
2022-07-31T08:33:19.029Z,95508.53
2022-07-31T08:36:12.648Z,95508.53
2022-07-31T08:38:58.699Z,95512.06
2022-07-31T08:42:07.668Z,95506.94
2022-07-31T08:44:54.361Z,95503.00
2022-07-31T08:47:49.089Z,95514.84
2022-07-31T08:50:44.920Z,95501.41
2022-07-31T08:53:48.964Z,95500.22
2022-07-31T08:56:40.633Z,95494.31
2022-07-31T08:59:27.985Z,95503.78
2022-07-31T09:02:15.884Z,95507.34
2022-07-31T09:05:21.848Z,95499.84
2022-07-31T09:08:08.498Z,95506.91
2022-07-31T09:11:06.224Z,95509.66
2022-07-31T09:14:02.541Z,95508.09
2022-07-31T09:17:10.095Z,95504.53
2022-07-31T09:19:56.296Z,95507.72
2022-07-31T09:22:45.671Z,95502.59
2022-07-31T09:25:32.114Z,95499.03
2022-07-31T09:28:49.273Z,95511.66
2022-07-31T09:31:39.293Z,95500.63
2022-07-31T09:34:53.382Z,95502.22
2022-07-31T09:37:47.295Z,95503.78
2022-07-31T09:40:57.334Z,95496.66
2022-07-31T09:44:09.500Z,95489.91
2022-07-31T09:48:15.219Z,95479.25
2022-07-31T09:51:07.905Z,95481.56
2022-07-31T09:53:56.526Z,95470.50
2022-07-31T09:57:13.943Z,95470.50
2022-07-31T10:00:04.487Z,95474.44
2022-07-31T10:03:11.034Z,95468.91
2022-07-31T10:05:58.894Z,95458.63
2022-07-31T10:08:47.031Z,95464.94
2022-07-31T10:12:02.533Z,95460.19
2022-07-31T10:14:51.484Z,95448.31
2022-07-31T10:17:42.475Z,95454.63
2022-07-31T10:21:58.164Z,95456.94
2022-07-31T10:24:49.138Z,95458.50
2022-07-31T10:27:35.902Z,95434.72
2022-07-31T10:30:28.867Z,95436.31
2022-07-31T10:33:42.465Z,95433.50
2022-07-31T10:36:46.851Z,95426.75
2022-07-31T10:40:19.659Z,95437.03
2022-07-31T10:43:52.320Z,95427.09
2022-07-31T10:47:00.851Z,95434.91
2022-07-31T10:49:59.759Z,95436.09
2022-07-31T10:53:16.750Z,95432.16
2022-07-31T10:56:45.311Z,95427.72
2022-07-31T10:59:56.966Z,95427.25
2022-07-31T11:03:20.558Z,95410.63
2022-07-31T11:06:27.011Z,95430.19
2022-07-31T11:09:28.906Z,95432.50
2022-07-31T11:12:33.973Z,95421.38
2022-07-31T11:16:10.414Z,95424.88
2022-07-31T11:19:01.446Z,95423.69
2022-07-31T11:21:47.775Z,95412.59
2022-07-31T11:24:33.700Z,95418.13
2022-07-31T11:28:19.153Z,95420.50
2022-07-31T11:31:07.440Z,95420.09
2022-07-31T11:33:53.809Z,95411.00
2022-07-31T11:36:43.534Z,95408.59
2022-07-31T11:39:36.549Z,95393.16
2022-07-31T11:42:46.368Z,95394.28
2022-07-31T11:45:34.051Z,95371.41
2022-07-31T11:49:47.675Z,95394.19
2022-07-31T11:52:44.390Z,95388.09
2022-07-31T11:55:47.148Z,95395.97
2022-07-31T11:58:33.954Z,95388.47
2022-07-31T12:01:51.871Z,95383.75
2022-07-31T12:04:38.609Z,95386.88
2022-07-31T12:07:28.715Z,95379.63
2022-07-31T12:10:15.661Z,95382.59
2022-07-31T12:13:02.336Z,95376.53
2022-07-31T12:16:11.357Z,95370.44
2022-07-31T12:19:10.146Z,95364.00
2022-07-31T12:21:56.692Z,95363.03
2022-07-31T12:25:57.725Z,95356.53
2022-07-31T12:28:47.351Z,95349.25
2022-07-31T12:31:59.285Z,95361.00
2022-07-31T12:34:49.123Z,95352.16
2022-07-31T12:37:48.518Z,95350.81
2022-07-31T12:40:36.703Z,95346.22
2022-07-31T12:43:25.831Z,95343.63
2022-07-31T12:46:11.714Z,95352.84
2022-07-31T12:48:57.532Z,95335.19
2022-07-31T12:51:44.878Z,95330.91
2022-07-31T12:54:37.738Z,95322.94
2022-07-31T12:57:25.352Z,95339.19
2022-07-31T13:00:11.910Z,95324.28
2022-07-31T13:02:59.734Z,95315.94
2022-07-31T13:05:49.144Z,95325.31
2022-07-31T13:08:37.360Z,95313.59
2022-07-31T13:11:25.674Z,95319.94
2022-07-31T13:14:11.582Z,95310.72
2022-07-31T13:16:57.644Z,95306.94
2022-07-31T13:19:43.625Z,95312.50
2022-07-31T13:22:29.673Z,95297.91
2022-07-31T13:25:15.455Z,95301.41
2022-07-31T13:28:01.807Z,95300.22
2022-07-31T13:30:50.929Z,95300.53
2022-07-31T13:33:39.470Z,95293.88
2022-07-31T13:36:25.434Z,95291.25
2022-07-31T13:39:11.792Z,95284.13
2022-07-31T13:41:57.582Z,95289.56
2022-07-31T13:44:44.032Z,95281.22
2022-07-31T13:47:51.685Z,95282.28
2022-07-31T13:50:37.474Z,95274.22
2022-07-31T13:53:23.387Z,95271.56
2022-07-31T13:56:09.232Z,95267.84
2022-07-31T13:58:55.533Z,95276.34
2022-07-31T14:02:05.348Z,95268.41
2022-07-31T14:04:47.747Z,95268.03
2022-07-31T14:07:47.968Z,95261.75
2022-07-31T14:10:37.835Z,95264.94
2022-07-31T14:13:24.295Z,95263.63
2022-07-31T14:16:10.136Z,95260.47
2022-07-31T14:18:56.400Z,95262.09
2022-07-31T14:21:50.048Z,95247.03
2022-07-31T14:24:50.038Z,95254.66
2022-07-31T14:27:38.752Z,95248.41
2022-07-31T14:30:24.997Z,95246.75
2022-07-31T14:33:13.213Z,95245.84
2022-07-31T14:35:59.496Z,95240.84
2022-07-31T14:38:45.502Z,95253.63
2022-07-31T14:41:31.699Z,95247.25
2022-07-31T14:44:21.428Z,95242.50
2022-07-31T14:47:16.159Z,95241.16
2022-07-31T14:50:09.478Z,95233.50
2022-07-31T14:52:57.233Z,95236.25
2022-07-31T14:55:43.307Z,95242.66
2022-07-31T14:58:29.450Z,95241.75
2022-07-31T15:01:15.600Z,95225.44
2022-07-31T15:04:02.187Z,95233.38
2022-07-31T15:06:55.990Z,95219.84
2022-07-31T15:09:45.033Z,95230.25
2022-07-31T15:12:31.555Z,95217.09
2022-07-31T15:15:17.368Z,95232.66
2022-07-31T15:18:17.665Z,95217.41
2022-07-31T15:21:03.554Z,95225.22
2022-07-31T15:23:51.031Z,95218.78
2022-07-31T15:26:36.800Z,95221.81
2022-07-31T15:29:22.634Z,95216.78
2022-07-31T15:32:08.960Z,95216.22
2022-07-31T15:34:54.891Z,95218.94
2022-07-31T15:37:42.475Z,95215.13
2022-07-31T15:41:07.343Z,95214.50
2022-07-31T15:43:57.072Z,95218.38
2022-07-31T15:46:43.092Z,95204.13
2022-07-31T15:49:28.960Z,95203.72
2022-07-31T15:52:50.424Z,95214.28
2022-07-31T15:55:36.867Z,95201.63
2022-07-31T15:58:23.204Z,95208.81
2022-07-31T16:01:14.890Z,95209.03
2022-07-31T16:04:00.960Z,95202.88
2022-07-31T16:06:49.026Z,95213.13
2022-07-31T16:09:36.645Z,95222.94
2022-07-31T16:12:43.477Z,95207.50
2022-07-31T16:15:29.663Z,95221.56
2022-07-31T16:18:18.266Z,95216.03
2022-07-31T16:21:04.681Z,95221.84
2022-07-31T16:23:50.651Z,95225.22
2022-07-31T16:26:40.066Z,95225.06
2022-07-31T16:29:59.392Z,95218.91
2022-07-31T16:32:33.488Z,95231.50
2022-07-31T16:35:19.969Z,95239.41
2022-07-31T16:38:05.960Z,95216.22
2022-07-31T16:40:53.648Z,95238.81
2022-07-31T16:43:50.892Z,95236.97
2022-07-31T16:46:38.581Z,95242.09
2022-07-31T16:49:36.137Z,95242.03
2022-07-31T16:52:24.309Z,95240.31
2022-07-31T16:55:10.387Z,95247.84
2022-07-31T16:57:56.540Z,95259.09
2022-07-31T17:00:43.324Z,95255.44
2022-07-31T17:03:58.422Z,95259.63
2022-07-31T17:06:39.697Z,95264.72
2022-07-31T17:09:25.927Z,95254.72
2022-07-31T17:12:12.286Z,95277.06
2022-07-31T17:14:58.405Z,95283.59
2022-07-31T17:17:46.041Z,95289.56
2022-07-31T17:20:32.085Z,95289.84
2022-07-31T17:23:43.400Z,95300.34
2022-07-31T17:26:32.914Z,95294.28
2022-07-31T17:29:18.733Z,95301.94
2022-07-31T17:32:05.275Z,95301.63
2022-07-31T17:34:51.447Z,95299.84
2022-07-31T17:37:39.937Z,95304.31
2022-07-31T17:40:42.378Z,95295.72
2022-07-31T17:43:45.534Z,95312.41
2022-07-31T17:46:48.044Z,95320.56
2022-07-31T17:49:34.625Z,95325.41
2022-07-31T17:52:31.422Z,95330.25
2022-07-31T17:55:17.519Z,95331.09
2022-07-31T17:58:03.808Z,95329.97
2022-07-31T18:00:49.751Z,95334.47
2022-07-31T18:03:36.194Z,95338.47
2022-07-31T18:06:22.703Z,95336.25
2022-07-31T18:09:08.590Z,95350.50
2022-07-31T18:11:55.855Z,95357.63
2022-07-31T18:14:42.190Z,95358.13
2022-07-31T18:17:30.927Z,95357.09
2022-07-31T18:20:21.916Z,95371.31
2022-07-31T18:28:03.794Z,95377.13
2022-07-31T18:30:50.125Z,95387.38
2022-07-31T18:35:01.834Z,95386.00
2022-07-31T18:38:16.509Z,95403.63
2022-07-31T18:41:02.585Z,95401.25
2022-07-31T18:43:48.616Z,95409.22
2022-07-31T18:46:35.286Z,95410.91
2022-07-31T18:51:00.950Z,95420.41
2022-07-31T18:52:46.342Z,95430.78
2022-07-31T18:55:32.606Z,95426.03
2022-07-31T18:58:18.659Z,95440.31
2022-07-31T19:01:09.119Z,95445.13
2022-07-31T19:04:38.442Z,95449.13
2022-07-31T19:07:25.791Z,95443.97
2022-07-31T19:10:12.114Z,95460.97
2022-07-31T19:13:25.963Z,95464.22
2022-07-31T19:16:12.473Z,95464.94
2022-07-31T19:19:00.338Z,95464.97
2022-07-31T19:21:46.393Z,95461.06
2022-07-31T19:24:32.315Z,95464.22
2022-07-31T19:27:18.963Z,95465.03
2022-07-31T19:30:10.111Z,95474.13
2022-07-31T19:32:56.043Z,95470.59
2022-07-31T19:35:55.242Z,95481.72
2022-07-31T19:39:01.327Z,95469.16
2022-07-31T19:42:11.507Z,95481.03
2022-07-31T19:44:59.257Z,95477.91
2022-07-31T19:47:45.204Z,95475.56
2022-07-31T19:50:31.528Z,95479.56
2022-07-31T19:53:17.266Z,95483.13
2022-07-31T19:56:05.968Z,95472.09
2022-07-31T19:58:52.149Z,95483.97
2022-07-31T20:01:37.997Z,95463.13
2022-07-31T20:04:23.949Z,95483.63
2022-07-31T20:07:10.106Z,95473.41
2022-07-31T20:09:55.862Z,95472.63
2022-07-31T20:12:41.777Z,95495.53
2022-07-31T20:15:52.593Z,95493.97
2022-07-31T20:18:52.895Z,95482.91
2022-07-31T20:21:38.706Z,95482.16
2022-07-31T20:24:38.267Z,95483.00
2022-07-31T20:27:24.406Z,95487.38
2022-07-31T20:30:11.463Z,95487.03
2022-07-31T20:32:57.539Z,95481.50
2022-07-31T20:35:49.001Z,95483.50
2022-07-31T20:38:35.830Z,95487.88
2022-07-31T20:41:21.981Z,95483.13
2022-07-31T20:44:08.469Z,95476.84
2022-07-31T20:46:54.500Z,95492.63
2022-07-31T20:49:50.153Z,95481.59
2022-07-31T20:52:35.935Z,95489.50
2022-07-31T20:55:22.355Z,95478.47
2022-07-31T20:58:08.341Z,95490.31
2022-07-31T21:00:55.068Z,95495.84
2022-07-31T21:03:41.414Z,95494.25
2022-07-31T21:06:27.364Z,95495.84
2022-07-31T21:09:13.510Z,95510.06
2022-07-31T21:11:59.562Z,95497.41
2022-07-31T21:14:45.672Z,95510.06
2022-07-31T21:17:31.833Z,95508.47
2022-07-31T21:20:17.686Z,95522.69
2022-07-31T21:23:05.023Z,95512.03
2022-07-31T21:25:58.379Z,95529.81
2022-07-31T21:28:48.310Z,95524.28
2022-07-31T21:31:35.091Z,95529.00
2022-07-31T21:34:21.311Z,95519.94
2022-07-31T21:37:07.624Z,95528.22
2022-07-31T21:39:53.774Z,95519.53
2022-07-31T21:42:43.537Z,95527.47
2022-07-31T21:45:45.702Z,95520.34
2022-07-31T21:48:39.808Z,95506.13
2022-07-31T21:51:26.187Z,95517.97
2022-07-31T21:54:15.410Z,95513.25
2022-07-31T21:57:01.191Z,95517.19
2022-07-31T21:59:47.060Z,95519.56
2022-07-31T22:02:33.809Z,95514.03
2022-07-31T22:06:01.870Z,95518.00
2022-07-31T22:08:48.677Z,95533.78
2022-07-31T22:11:35.855Z,95501.41
2022-07-31T22:14:22.610Z,95521.91
2022-07-31T22:17:08.706Z,95518.00
2022-07-31T22:19:59.754Z,95537.72
2022-07-31T22:22:46.307Z,95521.91
2022-07-31T22:25:32.644Z,95526.66
2022-07-31T22:28:23.329Z,95531.81
2022-07-31T22:31:10.427Z,95529.81
2022-07-31T22:33:56.642Z,95532.97
2022-07-31T22:36:43.098Z,95530.63
2022-07-31T22:39:29.075Z,95524.28
2022-07-31T22:42:15.211Z,95518.78
2022-07-31T22:45:07.523Z,95514.81
2022-07-31T22:47:58.716Z,95518.72
2022-07-31T22:50:44.935Z,95516.34
2022-07-31T22:53:31.017Z,95513.97
2022-07-31T22:56:18.142Z,95523.41
2022-07-31T22:59:04.140Z,95504.47
2022-07-31T23:01:50.096Z,95513.13
2022-07-31T23:04:36.389Z,95519.44
2022-07-31T23:07:22.190Z,95513.47
2022-07-31T23:10:08.885Z,95503.22
2022-07-31T23:12:54.728Z,95509.13
2022-07-31T23:15:40.385Z,95514.66
2022-07-31T23:18:26.223Z,95511.50
2022-07-31T23:21:12.207Z,95513.88
2022-07-31T23:23:58.364Z,95509.13
2022-07-31T23:26:44.424Z,95508.34
2022-07-31T23:29:30.225Z,95511.50
2022-07-31T23:32:16.134Z,95511.50
2022-07-31T23:35:02.210Z,95511.50
2022-07-31T23:37:47.997Z,95516.59
2022-07-31T23:40:33.869Z,95517.00
2022-07-31T23:43:21.151Z,95510.69
2022-07-31T23:46:07.298Z,95526.47
2022-07-31T23:48:53.494Z,95513.84
2022-07-31T23:51:42.770Z,95525.66
2022-07-31T23:54:28.842Z,95514.63
2022-07-31T23:57:14.518Z,95519.72
